Time;durP1;ratioP1;P1;durP2;ratioP2;P2;SDS_P1;SDS_P2;PMS_P1;PMS_P2;Temp;Humidity;BMP_temperature;BMP_pressure;BME280_temperature;BME280_humidity;BME280_pressure;Samples;Min_cycle;Max_cycle;Signal;HPM_P1;HPM_P2
2021/12/18 00:01:07;;;;;;;2.22;0.82;;;7.80;99.90;;;;;;4988868;28;20026;-73
2021/12/18 00:03:33;;;;;;;0.90;0.60;;;7.80;99.90;;;;;;4988372;28;20529;-73
2021/12/18 00:06:01;;;;;;;1.70;0.75;;;7.80;99.90;;;;;;4988180;28;20035;-74
2021/12/18 00:08:26;;;;;;;0.70;0.45;;;7.80;99.90;;;;;;4987155;28;20471;-73
2021/12/18 00:10:53;;;;;;;7.40;2.97;;;7.80;99.90;;;;;;4988914;28;20057;-73
2021/12/18 00:13:19;;;;;;;11.02;3.63;;;7.70;99.90;;;;;;4988639;28;20023;-74
2021/12/18 00:15:45;;;;;;;4.85;2.33;;;7.80;99.90;;;;;;4988812;28;20037;-73
2021/12/18 00:18:11;;;;;;;5.65;1.33;;;7.80;99.90;;;;;;4988840;28;20054;-73
2021/12/18 00:20:37;;;;;;;1.92;0.95;;;7.70;99.90;;;;;;4986984;28;20082;-74
2021/12/18 00:23:04;;;;;;;3.63;1.15;;;7.70;99.90;;;;;;4988369;28;20034;-72
2021/12/18 00:25:30;;;;;;;3.65;0.90;;;7.70;99.90;;;;;;4988528;28;20088;-72
2021/12/18 00:27:56;;;;;;;2.75;0.75;;;7.70;99.90;;;;;;4988547;28;20026;-75
2021/12/18 00:30:22;;;;;;;3.90;0.88;;;7.70;99.90;;;;;;4988441;28;20502;-72
2021/12/18 00:32:48;;;;;;;4.93;1.05;;;7.70;99.90;;;;;;4988486;28;20074;-73
2021/12/18 00:35:14;;;;;;;1.50;0.60;;;7.60;99.90;;;;;;4988553;28;20050;-71
2021/12/18 00:37:40;;;;;;;1.85;0.50;;;7.70;99.90;;;;;;4988469;28;20027;-74
2021/12/18 00:40:19;;;;;;;2.72;0.82;;;7.70;99.90;;;;;;4988169;28;20026;-74
2021/12/18 00:42:56;;;;;;;1.45;0.68;;;7.70;99.90;;;;;;4988330;28;20026;-73
2021/12/18 00:45:23;;;;;;;2.20;0.82;;;7.70;99.90;;;;;;4988326;28;20027;-71
2021/12/18 00:47:48;;;;;;;0.45;0.43;;;7.70;99.90;;;;;;4988103;28;20065;-73
2021/12/18 00:50:26;;;;;;;2.22;0.77;;;7.60;99.90;;;;;;4988323;28;20030;-71
2021/12/18 00:52:52;;;;;;;0.47;0.47;;;7.50;99.90;;;;;;4987799;28;20023;-71
2021/12/18 00:55:22;;;;;;;0.82;0.38;;;7.60;99.90;;;;;;4987882;28;20053;-72
2021/12/18 00:57:49;;;;;;;0.70;0.43;;;7.60;99.90;;;;;;4987817;28;20023;-71
2021/12/18 01:00:21;;;;;;;1.88;0.95;;;7.70;99.90;;;;;;4988094;28;20511;-73
2021/12/18 01:02:49;;;;;;;0.25;0.15;;;7.60;99.90;;;;;;4987840;28;20027;-72
2021/12/18 01:05:16;;;;;;;1.85;0.57;;;7.60;99.90;;;;;;4987769;28;20023;-73
2021/12/18 01:07:42;;;;;;;2.65;0.80;;;7.60;99.90;;;;;;4986588;28;20030;-72
2021/12/18 01:10:36;;;;;;;1.85;0.52;;;7.60;99.90;;;;;;4986697;28;20042;-72
2021/12/18 01:13:04;;;;;;;0.38;0.10;;;7.60;99.90;;;;;;4987633;28;20034;-72
2021/12/18 01:15:36;;;;;;;0.80;0.52;;;7.60;99.90;;;;;;4987457;28;20069;-72
2021/12/18 01:23:33;;;;;;;0.95;0.32;;;7.60;99.90;;;;;;4987351;28;20101;-72
2021/12/18 01:25:59;;;;;;;1.52;0.82;;;7.60;99.90;;;;;;4987304;28;20430;-73
2021/12/18 01:28:25;;;;;;;2.25;0.60;;;7.60;99.90;;;;;;4987115;28;20547;-73
2021/12/18 01:30:51;;;;;;;2.22;0.82;;;7.60;99.90;;;;;;4987327;28;20038;-73
2021/12/18 01:33:16;;;;;;;0.55;0.30;;;7.50;99.90;;;;;;4987384;28;20070;-73
2021/12/18 01:35:43;;;;;;;1.48;0.52;;;7.50;99.90;;;;;;4986153;28;20034;-73
2021/12/18 01:38:10;;;;;;;2.00;1.10;;;7.50;99.90;;;;;;4987273;28;20078;-73
2021/12/18 01:40:35;;;;;;;3.47;0.88;;;7.60;99.90;;;;;;4987130;28;20023;-72
2021/12/18 01:53:55;;;;;;;3.53;1.50;;;7.60;99.90;;;;;;4986903;28;20034;-73
2021/12/18 01:56:23;;;;;;;3.00;1.17;;;7.50;99.90;;;;;;4986703;28;20026;-72
2021/12/18 01:58:49;;;;;;;7.28;0.98;;;7.50;99.90;;;;;;4983272;28;20030;-73
2021/12/18 02:01:16;;;;;;;4.43;1.60;;;7.50;99.90;;;;;;4985376;28;20023;-73
2021/12/18 02:03:42;;;;;;;2.28;0.93;;;7.50;99.90;;;;;;4986686;28;20042;-74
2021/12/18 02:06:09;;;;;;;2.55;1.58;;;7.50;99.90;;;;;;4986138;28;20031;-72
2021/12/18 02:08:38;;;;;;;2.50;1.25;;;7.40;99.90;;;;;;4986492;28;20026;-73
2021/12/18 02:19:47;;;;;;;2.67;1.02;;;7.40;99.90;;;;;;4986324;28;20491;-72
2021/12/18 02:22:15;;;;;;;1.95;1.02;;;7.40;99.90;;;;;;4985336;28;20046;-71
2021/12/18 02:24:42;;;;;;;3.53;1.40;;;7.40;99.90;;;;;;4986224;28;20534;-72
2021/12/18 02:27:08;;;;;;;4.20;1.65;;;7.40;99.90;;;;;;4985018;28;20027;-70
2021/12/18 02:29:36;;;;;;;1.15;0.73;;;7.40;99.90;;;;;;4986541;28;20073;-71
2021/12/18 02:32:03;;;;;;;4.70;1.58;;;7.40;99.90;;;;;;4984942;28;20114;-71
2021/12/18 02:34:31;;;;;;;3.95;1.33;;;7.40;99.90;;;;;;4986187;28;20035;-72
2021/12/18 02:37:06;;;;;;;4.28;1.30;;;7.40;99.90;;;;;;4986003;28;20022;-72
2021/12/18 02:39:45;;;;;;;8.02;1.92;;;7.40;99.90;;;;;;4986105;28;20093;-74
2021/12/18 02:42:17;;;;;;;5.30;2.00;;;7.40;99.90;;;;;;4986312;28;20630;-74
2021/12/18 02:44:44;;;;;;;3.60;1.63;;;7.40;99.90;;;;;;4984981;28;20035;-74
2021/12/18 02:47:10;;;;;;;5.50;2.03;;;7.50;99.90;;;;;;4985063;28;20057;-72
2021/12/18 02:49:36;;;;;;;8.73;1.67;;;7.40;99.90;;;;;;4986109;28;20088;-74
2021/12/18 02:52:05;;;;;;;3.53;1.80;;;7.40;99.90;;;;;;4986147;28;20062;-72
2021/12/18 02:54:30;;;;;;;8.27;1.75;;;7.50;99.90;;;;;;4984808;28;20030;-72
2021/12/18 02:56:56;;;;;;;6.85;1.80;;;7.50;99.90;;;;;;4985658;28;20046;-72
2021/12/18 02:59:24;;;;;;;5.47;1.50;;;7.40;99.90;;;;;;4986052;28;20050;-72
2021/12/18 03:01:49;;;;;;;7.22;1.55;;;7.50;99.90;;;;;;4986010;28;20023;-73
2021/12/18 03:04:24;;;;;;;2.97;1.63;;;7.50;99.90;;;;;;4984590;28;20150;-71
2021/12/18 03:06:54;;;;;;;5.63;1.48;;;7.50;99.90;;;;;;4985970;28;20101;-71
2021/12/18 03:25:12;;;;;;;5.22;1.73;;;7.50;99.90;;;;;;4989595;28;20058;-73
2021/12/18 03:27:47;;;;;;;8.95;1.60;;;7.50;99.90;;;;;;4989660;28;20387;-72
2021/12/18 03:30:14;;;;;;;5.00;1.50;;;7.50;99.90;;;;;;4989606;28;20434;-71
2021/12/18 03:32:40;;;;;;;3.83;1.67;;;7.40;99.90;;;;;;4988270;28;20027;-71
2021/12/18 03:35:06;;;;;;;6.47;2.55;;;7.50;99.90;;;;;;4989439;28;20031;-71
2021/12/18 03:37:34;;;;;;;3.92;1.73;;;7.50;99.90;;;;;;4989317;28;20045;-74
2021/12/18 03:40:00;;;;;;;4.70;2.00;;;7.50;99.90;;;;;;4989299;28;20019;-72
2021/12/18 03:42:26;;;;;;;4.20;1.17;;;7.50;99.90;;;;;;4989360;28;20034;-71
2021/12/18 03:44:51;;;;;;;3.20;1.30;;;7.50;99.90;;;;;;4989265;28;20049;-71
2021/12/18 03:47:18;;;;;;;3.22;1.30;;;7.50;99.90;;;;;;4989246;28;20025;-71
2021/12/18 03:49:43;;;;;;;1.73;0.70;;;7.50;99.90;;;;;;4988028;28;20057;-71
2021/12/18 03:52:09;;;;;;;1.88;1.05;;;7.40;99.90;;;;;;4989168;28;20019;-71
2021/12/18 03:54:35;;;;;;;3.33;1.30;;;7.40;99.90;;;;;;4989210;28;20029;-71
2021/12/18 03:57:01;;;;;;;1.65;0.85;;;7.50;99.90;;;;;;4989065;28;20031;-71
2021/12/18 03:59:26;;;;;;;3.00;1.35;;;7.50;99.90;;;;;;4989135;28;20042;-72
2021/12/18 04:01:52;;;;;;;4.70;1.45;;;7.50;99.90;;;;;;4988857;28;20031;-71
2021/12/18 04:04:18;;;;;;;2.60;1.02;;;7.50;99.90;;;;;;4989061;28;20039;-72
2021/12/18 04:06:44;;;;;;;4.32;1.55;;;7.50;99.90;;;;;;4988987;28;20030;-73
2021/12/18 04:09:13;;;;;;;2.75;1.00;;;7.50;99.90;;;;;;4988834;28;20031;-73
2021/12/18 04:11:40;;;;;;;5.90;1.45;;;7.50;99.90;;;;;;4988895;28;20082;-73
2021/12/18 04:14:06;;;;;;;1.73;0.93;;;7.50;99.90;;;;;;4988765;28;20026;-71
2021/12/18 04:16:33;;;;;;;4.50;0.90;;;7.40;99.90;;;;;;4988645;28;20066;-73
2021/12/18 04:19:01;;;;;;;2.25;0.75;;;7.40;99.90;;;;;;4988734;28;20022;-73
2021/12/18 04:21:29;;;;;;;1.38;0.85;;;7.40;99.90;;;;;;4988467;28;20054;-72
2021/12/18 04:23:55;;;;;;;2.85;1.00;;;7.50;99.90;;;;;;4988366;28;20039;-73
2021/12/18 04:26:20;;;;;;;2.22;1.13;;;7.40;99.90;;;;;;4987150;28;20030;-71
2021/12/18 04:28:46;;;;;;;3.15;1.20;;;7.50;99.90;;;;;;4987244;28;20027;-73
2021/12/18 04:31:14;;;;;;;2.08;0.77;;;7.40;99.90;;;;;;4986846;28;20361;-73
2021/12/18 04:33:40;;;;;;;2.10;1.05;;;7.40;99.90;;;;;;4987349;28;20027;-72
2021/12/18 04:36:05;;;;;;;2.40;1.05;;;7.40;99.90;;;;;;4987113;28;20034;-71
2021/12/18 04:38:31;;;;;;;1.55;0.80;;;7.40;99.90;;;;;;4988247;28;20022;-73
2021/12/18 04:40:58;;;;;;;1.45;0.95;;;7.40;99.90;;;;;;4986846;28;20115;-73
2021/12/18 04:43:24;;;;;;;5.05;1.00;;;7.30;99.90;;;;;;4988044;28;20051;-73
2021/12/18 04:45:50;;;;;;;1.42;0.82;;;7.40;99.90;;;;;;4988307;28;20030;-72
2021/12/18 04:48:16;;;;;;;2.10;1.25;;;7.40;99.90;;;;;;4986965;28;20023;-72
2021/12/18 04:50:42;;;;;;;0.93;0.90;;;7.40;99.90;;;;;;4988209;28;20038;-74
2021/12/18 04:53:11;;;;;;;2.08;0.80;;;7.40;99.90;;;;;;4988066;28;20054;-71
2021/12/18 04:55:37;;;;;;;0.95;0.77;;;7.40;99.90;;;;;;4988101;28;20078;-71
2021/12/18 04:58:03;;;;;;;2.03;0.73;;;7.40;99.90;;;;;;4987878;28;20031;-72
2021/12/18 05:00:39;;;;;;;3.17;1.20;;;7.40;99.90;;;;;;4988036;28;20054;-72
2021/12/18 05:03:08;;;;;;;1.45;0.75;;;7.40;99.90;;;;;;4987853;28;20373;-73
2021/12/18 05:05:34;;;;;;;1.80;0.88;;;7.40;99.90;;;;;;4987592;28;20054;-73
2021/12/18 05:08:01;;;;;;;1.45;0.68;;;7.40;99.90;;;;;;4987519;28;20091;-73
2021/12/18 05:10:27;;;;;;;4.05;1.35;;;7.40;99.90;;;;;;4987683;28;20054;-72
2021/12/18 05:12:52;;;;;;;1.02;0.80;;;7.40;99.90;;;;;;4987706;28;20026;-73
2021/12/18 05:15:18;;;;;;;1.02;0.73;;;7.30;99.90;;;;;;4987539;28;20038;-70
2021/12/18 05:17:43;;;;;;;1.25;0.55;;;7.30;99.90;;;;;;4986294;28;20118;-71
2021/12/18 05:20:09;;;;;;;2.75;1.17;;;7.40;99.90;;;;;;4985994;28;20034;-70
2021/12/18 05:22:35;;;;;;;2.50;1.27;;;7.30;99.90;;;;;;4987749;28;20034;-71
2021/12/18 05:25:07;;;;;;;1.75;0.80;;;7.30;99.90;;;;;;4987283;28;20043;-71
2021/12/18 05:27:33;;;;;;;1.23;0.85;;;7.30;99.90;;;;;;4987432;28;20038;-71
2021/12/18 05:29:59;;;;;;;1.70;0.80;;;7.30;99.90;;;;;;4987213;28;20019;-70
2021/12/18 05:32:25;;;;;;;1.80;0.55;;;7.20;99.90;;;;;;4987235;28;20026;-70
2021/12/18 05:34:51;;;;;;;1.00;0.47;;;7.30;99.90;;;;;;4987277;28;20114;-71
2021/12/18 05:37:20;;;;;;;2.70;1.13;;;7.30;99.90;;;;;;4987420;28;20112;-72
2021/12/18 05:39:49;;;;;;;2.53;0.95;;;7.30;99.90;;;;;;4985969;28;20476;-72
2021/12/18 05:42:16;;;;;;;2.17;0.70;;;7.30;99.90;;;;;;4986508;28;20031;-73
2021/12/18 05:44:42;;;;;;;1.05;0.52;;;7.40;99.90;;;;;;4987121;28;20047;-71
2021/12/18 05:47:08;;;;;;;1.95;1.27;;;7.30;99.90;;;;;;4986896;28;20102;-71
2021/12/18 05:49:34;;;;;;;1.17;0.70;;;7.30;99.90;;;;;;4986982;28;20053;-71
2021/12/18 05:52:00;;;;;;;4.32;0.93;;;7.30;99.90;;;;;;4986890;28;20474;-70
2021/12/18 05:54:25;;;;;;;1.75;0.98;;;7.40;99.90;;;;;;4985546;28;20051;-71
2021/12/18 05:56:51;;;;;;;2.72;1.48;;;7.40;99.90;;;;;;4985662;28;20042;-70
2021/12/18 05:59:17;;;;;;;2.85;1.30;;;7.40;99.90;;;;;;4985614;28;20050;-72
2021/12/18 06:01:43;;;;;;;3.60;1.33;;;7.40;99.90;;;;;;4985520;28;20472;-72
2021/12/18 06:04:08;;;;;;;2.35;0.88;;;7.40;99.90;;;;;;4986727;28;20038;-72
2021/12/18 06:06:34;;;;;;;4.07;1.40;;;7.40;99.90;;;;;;4985453;28;20023;-71
2021/12/18 06:09:00;;;;;;;3.45;0.95;;;7.30;99.90;;;;;;4986540;28;20038;-72
2021/12/18 06:11:28;;;;;;;3.33;0.95;;;7.40;99.90;;;;;;4986495;28;20033;-71
2021/12/18 06:13:54;;;;;;;1.00;0.57;;;7.40;99.90;;;;;;4985332;28;20121;-72
2021/12/18 06:16:21;;;;;;;3.20;0.90;;;7.40;99.90;;;;;;4986448;28;20396;-72
2021/12/18 06:18:50;;;;;;;0.95;0.50;;;7.40;99.90;;;;;;4986629;28;20083;-72
2021/12/18 06:21:17;;;;;;;2.92;0.98;;;7.40;99.90;;;;;;4986257;28;20046;-72
2021/12/18 06:23:50;;;;;;;1.30;0.65;;;7.30;99.90;;;;;;4986281;28;20070;-76
2021/12/18 06:26:18;;;;;;;4.15;1.15;;;7.40;99.90;;;;;;4986606;28;20033;-74
2021/12/18 06:28:44;;;;;;;1.50;0.80;;;7.40;99.90;;;;;;4986264;28;20051;-74
2021/12/18 06:31:10;;;;;;;3.63;0.95;;;7.30;99.90;;;;;;4984595;28;20042;-73
2021/12/18 06:33:45;;;;;;;2.88;1.35;;;7.30;99.90;;;;;;4985957;28;20031;-74
2021/12/18 06:36:11;;;;;;;2.65;0.73;;;7.30;99.90;;;;;;4985446;28;20023;-73
2021/12/18 06:38:37;;;;;;;3.22;0.93;;;7.40;99.90;;;;;;4986165;28;20039;-72
2021/12/18 06:41:02;;;;;;;0.73;0.57;;;7.40;99.90;;;;;;4986092;28;20030;-72
2021/12/18 06:43:28;;;;;;;0.25;0.25;;;7.40;99.90;;;;;;4985799;28;20058;-74
2021/12/18 06:45:53;;;;;;;20.15;1.17;;;7.40;99.90;;;;;;5005493;28;20035;-74
2021/12/18 06:48:19;;;;;;;1.98;0.90;;;7.40;99.90;;;;;;5004278;28;20065;-72
2021/12/18 06:50:50;;;;;;;2.15;0.93;;;7.40;99.90;;;;;;5005706;28;20467;-73
2021/12/18 06:53:16;;;;;;;0.93;0.60;;;7.40;99.90;;;;;;5005371;28;20479;-74
2021/12/18 06:55:42;;;;;;;2.53;0.88;;;7.40;99.90;;;;;;5005941;28;20471;-74
2021/12/18 06:58:08;;;;;;;2.97;1.02;;;7.50;99.90;;;;;;5005556;28;20038;-73
2021/12/18 07:00:34;;;;;;;4.13;1.50;;;7.50;99.90;;;;;;5003939;28;20098;-73
2021/12/18 07:03:00;;;;;;;3.58;1.42;;;7.50;99.90;;;;;;5003766;28;20034;-72
2021/12/18 07:05:26;;;;;;;2.97;1.50;;;7.50;99.90;;;;;;5004084;28;20037;-74
2021/12/18 07:07:52;;;;;;;2.85;1.13;;;7.40;99.90;;;;;;5004010;28;20036;-72
2021/12/18 07:10:24;;;;;;;1.23;0.57;;;7.50;99.90;;;;;;4994056;28;20103;-74
2021/12/18 07:12:50;;;;;;;2.05;1.00;;;7.50;99.90;;;;;;4985829;28;20054;-72
2021/12/18 07:15:16;;;;;;;3.08;1.42;;;7.40;99.90;;;;;;4986569;28;20035;-73
2021/12/18 07:17:41;;;;;;;2.65;1.15;;;7.50;99.90;;;;;;4984500;28;20063;-75
2021/12/18 07:20:09;;;;;;;0.82;0.57;;;7.50;99.90;;;;;;4985350;28;20054;-73
2021/12/18 07:22:36;;;;;;;3.65;1.52;;;7.50;99.90;;;;;;4985616;28;20034;-75
2021/12/18 07:25:02;;;;;;;3.97;0.95;;;7.50;99.90;;;;;;4983029;28;20435;-73
2021/12/18 07:27:27;;;;;;;1.63;1.25;;;7.50;99.90;;;;;;4985904;28;20026;-73
2021/12/18 07:29:53;;;;;;;4.55;0.85;;;7.50;99.90;;;;;;4984403;28;20057;-74
2021/12/18 07:32:18;;;;;;;1.40;0.90;;;7.50;99.90;;;;;;4985655;28;20027;-72
2021/12/18 07:34:44;;;;;;;2.80;1.48;;;7.50;99.90;;;;;;4985820;28;20034;-74
2021/12/18 07:37:10;;;;;;;3.58;1.55;;;7.50;99.90;;;;;;4984867;28;20031;-72
2021/12/18 07:39:36;;;;;;;2.70;1.05;;;7.60;99.90;;;;;;4985309;28;20546;-72
2021/12/18 07:42:02;;;;;;;2.92;1.13;;;7.60;99.90;;;;;;4985370;28;20027;-71
2021/12/18 07:44:27;;;;;;;1.95;0.82;;;7.60;99.90;;;;;;4985518;28;20058;-71
2021/12/18 07:46:53;;;;;;;2.90;1.42;;;7.60;99.90;;;;;;4985580;28;20031;-72
2021/12/18 07:49:18;;;;;;;2.10;1.05;;;7.60;99.90;;;;;;4984294;28;20038;-73
2021/12/18 07:51:44;;;;;;;5.28;1.15;;;7.60;99.90;;;;;;4989874;28;20035;-75
2021/12/18 07:54:10;;;;;;;8.88;1.38;;;7.70;99.90;;;;;;4985494;28;20031;-72
2021/12/18 07:56:39;;;;;;;1.65;0.80;;;7.70;99.90;;;;;;4993069;28;20042;-73
2021/12/18 07:59:04;;;;;;;2.50;0.75;;;7.70;99.90;;;;;;5004809;28;20114;-72
2021/12/18 08:01:30;;;;;;;3.72;1.15;;;7.70;99.90;;;;;;4994615;28;20019;-73
2021/12/18 08:03:55;;;;;;;1.50;0.82;;;7.70;99.90;;;;;;4984061;28;20073;-73
2021/12/18 08:06:21;;;;;;;2.58;0.60;;;7.70;99.90;;;;;;4988379;28;20030;-72
2021/12/18 08:08:48;;;;;;;1.42;0.65;;;7.70;99.90;;;;;;4986978;28;20099;-73
2021/12/18 08:11:14;;;;;;;1.23;0.80;;;7.70;99.90;;;;;;4988633;28;20057;-73
2021/12/18 08:13:40;;;;;;;2.20;0.65;;;7.80;99.90;;;;;;4969828;28;20432;-74
2021/12/18 08:16:06;;;;;;;2.17;1.00;;;7.80;99.90;;;;;;4969382;29;20050;-72
2021/12/18 08:18:32;;;;;;;1.33;0.70;;;7.80;99.90;;;;;;4977854;28;20063;-73
2021/12/18 08:20:58;;;;;;;1.92;0.65;;;7.80;99.90;;;;;;4988383;28;20055;-73
2021/12/18 08:23:23;;;;;;;1.48;0.65;;;7.80;99.90;;;;;;4986873;28;20085;-73
2021/12/18 08:25:49;;;;;;;1.20;0.80;;;7.90;99.90;;;;;;4987256;28;20118;-72
2021/12/18 08:28:15;;;;;;;1.00;0.47;;;7.90;99.90;;;;;;4988456;28;20026;-73
2021/12/18 08:30:41;;;;;;;0.93;0.50;;;7.80;99.90;;;;;;4988336;28;20166;-72
2021/12/18 08:33:07;;;;;;;2.45;1.00;;;7.90;99.90;;;;;;4991042;28;20043;-72
2021/12/18 08:35:34;;;;;;;3.30;0.90;;;7.90;99.90;;;;;;4987766;28;20039;-73
2021/12/18 08:38:02;;;;;;;5.22;1.45;;;7.90;99.90;;;;;;4987733;28;20069;-72
2021/12/18 08:40:29;;;;;;;14.70;2.05;;;7.90;99.90;;;;;;4986639;28;20090;-71
2021/12/18 08:42:55;;;;;;;2.58;0.93;;;7.90;99.90;;;;;;4983315;28;20038;-73
2021/12/18 08:45:21;;;;;;;2.40;1.27;;;7.90;99.90;;;;;;4979626;28;20090;-73
2021/12/18 08:47:47;;;;;;;2.22;1.10;;;8.00;99.90;;;;;;4982649;28;20043;-72
2021/12/18 08:50:18;;;;;;;3.92;1.10;;;7.90;99.90;;;;;;4984993;28;20054;-74
2021/12/18 08:52:48;;;;;;;10.85;1.52;;;7.90;99.90;;;;;;4987446;28;20019;-72
2021/12/18 08:55:17;;;;;;;3.85;1.20;;;7.90;99.90;;;;;;4986464;28;20023;-72
2021/12/18 08:57:42;;;;;;;2.95;1.42;;;7.90;99.90;;;;;;4985165;28;20023;-72
2021/12/18 09:00:10;;;;;;;5.57;1.27;;;8.00;99.90;;;;;;4983857;28;20105;-72
2021/12/18 09:02:39;;;;;;;6.80;1.20;;;8.00;99.90;;;;;;4986674;28;20030;-72
2021/12/18 09:05:13;;;;;;;1.60;0.90;;;8.00;99.90;;;;;;4987259;28;20063;-73
2021/12/18 09:07:38;;;;;;;2.28;1.17;;;8.00;99.90;;;;;;4986783;28;20058;-72
2021/12/18 09:10:06;;;;;;;3.67;0.80;;;8.00;99.90;;;;;;4984827;28;20030;-71
2021/12/18 09:12:32;;;;;;;5.93;1.23;;;8.00;99.90;;;;;;4987092;28;20061;-71
2021/12/18 09:14:57;;;;;;;3.00;1.02;;;8.00;99.90;;;;;;4987449;28;20031;-70
2021/12/18 09:17:23;;;;;;;3.70;0.95;;;8.00;99.90;;;;;;4981144;28;20035;-71
2021/12/18 09:19:50;;;;;;;4.45;1.10;;;8.10;99.90;;;;;;4983056;28;20031;-73
2021/12/18 09:22:17;;;;;;;4.07;1.40;;;8.10;99.90;;;;;;4986116;28;20043;-72
2021/12/18 09:24:49;;;;;;;5.55;1.20;;;8.10;99.90;;;;;;4985579;28;20050;-72
2021/12/18 09:27:17;;;;;;;1.10;0.93;;;8.10;99.90;;;;;;4974812;28;20058;-72
2021/12/18 09:29:45;;;;;;;5.75;1.83;;;8.10;99.90;;;;;;4976378;28;20058;-73
2021/12/18 09:32:10;;;;;;;3.80;1.52;;;8.20;99.90;;;;;;5002190;28;20030;-72
2021/12/18 09:34:36;;;;;;;2.72;1.38;;;8.20;99.90;;;;;;5005046;28;20039;-71
2021/12/18 09:37:02;;;;;;;2.17;1.00;;;8.20;99.90;;;;;;5005374;28;20407;-72
2021/12/18 09:39:28;;;;;;;4.82;0.70;;;8.20;99.90;;;;;;4984467;28;20499;-72
2021/12/18 09:41:54;;;;;;;1.42;0.93;;;8.20;99.90;;;;;;4986104;28;20039;-73
2021/12/18 09:44:38;;;;;;;1.45;1.00;;;8.20;99.90;;;;;;4984775;28;20051;-72
2021/12/18 09:47:04;;;;;;;0.63;0.47;;;8.20;99.90;;;;;;4984198;28;20050;-71
2021/12/18 09:49:30;;;;;;;0.95;0.75;;;8.20;99.90;;;;;;4973562;28;20038;-71
2021/12/18 09:51:56;;;;;;;1.70;0.70;;;8.20;99.90;;;;;;4978387;28;20031;-70
2021/12/18 09:54:23;;;;;;;2.35;0.70;;;8.20;99.90;;;;;;4984337;28;20046;-71
2021/12/18 09:56:51;;;;;;;2.38;0.70;;;8.20;99.90;;;;;;4980372;28;20094;-72
2021/12/18 09:59:17;;;;;;;1.30;0.55;;;8.20;99.90;;;;;;4983500;28;20031;-71
2021/12/18 10:01:43;;;;;;;2.90;0.80;;;8.20;99.90;;;;;;4986176;28;20053;-71
2021/12/18 10:04:28;;;;;;;0.35;0.28;;;8.20;99.90;;;;;;4986880;28;20042;-71
2021/12/18 10:06:54;;;;;;;1.20;0.30;;;8.30;99.90;;;;;;4985800;28;20045;-70
2021/12/18 10:09:21;;;;;;;0.57;0.28;;;8.30;99.90;;;;;;4986269;28;20018;-70
2021/12/18 10:11:48;;;;;;;1.25;0.55;;;8.30;99.90;;;;;;4984333;28;20033;-71
2021/12/18 10:14:15;;;;;;;0.73;0.45;;;8.40;99.90;;;;;;4969079;28;20058;-71
2021/12/18 10:16:46;;;;;;;0.47;0.28;;;8.40;99.90;;;;;;5005833;28;20094;-71
2021/12/18 10:19:29;;;;;;;1.30;0.45;;;8.30;99.90;;;;;;5004446;28;20029;-73
2021/12/18 10:22:01;;;;;;;0.50;0.22;;;8.40;99.90;;;;;;4978208;28;20073;-71
2021/12/18 10:24:28;;;;;;;0.55;0.25;;;8.40;99.90;;;;;;4986001;28;20118;-70
2021/12/18 10:26:54;;;;;;;0.63;0.30;;;8.40;99.90;;;;;;4984924;28;20039;-70
2021/12/18 10:29:28;;;;;;;1.00;0.47;;;8.40;99.90;;;;;;4985860;28;20026;-72
2021/12/18 10:31:54;;;;;;;8.00;0.40;;;8.40;99.90;;;;;;4985976;28;20034;-71
2021/12/18 10:34:25;;;;;;;0.75;0.55;;;8.40;99.90;;;;;;4985142;28;20107;-71
2021/12/18 10:37:14;;;;;;;2.85;0.50;;;8.40;99.90;;;;;;4985864;28;20030;-72
2021/12/18 10:39:53;;;;;;;2.30;0.63;;;8.40;99.90;;;;;;4986500;28;20042;-72
2021/12/18 10:42:28;;;;;;;4.00;0.85;;;8.40;99.90;;;;;;4985359;28;20023;-72
2021/12/18 10:45:14;;;;;;;3.58;1.23;;;8.40;99.90;;;;;;4983759;28;20046;-73
2021/12/18 10:47:47;;;;;;;7.30;1.35;;;8.40;99.90;;;;;;4984853;28;20402;-72
2021/12/18 10:50:36;;;;;;;5.63;0.88;;;8.30;99.90;;;;;;4985817;28;20077;-73
2021/12/18 10:53:11;;;;;;;2.45;1.33;;;8.30;99.90;;;;;;4985382;28;20037;-72
2021/12/18 10:56:06;;;;;;;5.38;1.40;;;8.30;99.90;;;;;;4982804;28;20425;-75
2021/12/18 10:58:36;;;;;;;;;;;8.30;99.90;;;;;;4983480;28;20118;-73
2021/12/18 11:01:04;;;;;;;3.22;1.65;;;8.30;99.90;;;;;;4981469;28;19913;-73
2021/12/18 11:03:35;;;;;;;10.85;2.65;;;8.30;99.90;;;;;;4982718;28;20038;-72
2021/12/18 11:06:21;;;;;;;2.88;1.50;;;8.30;99.90;;;;;;4983807;28;20691;-75
2021/12/18 11:09:11;;;;;;;11.93;2.45;;;8.40;99.90;;;;;;4979609;28;20047;-73
2021/12/18 11:14:21;;;;;;;7.65;1.98;;;8.60;99.90;;;;;;4971246;28;20467;-73
2021/12/18 11:17:07;;;;;;;9.88;1.45;;;8.70;99.90;;;;;;4976843;28;20120;-75
2021/12/18 11:19:39;;;;;;;1.50;0.98;;;8.70;99.90;;;;;;4980954;28;20061;-74
2021/12/18 11:23:09;;;;;;;4.20;1.25;;;8.80;99.90;;;;;;5079754;28;20645;-73
2021/12/18 11:25:39;;;;;;;1.85;1.23;;;8.80;99.90;;;;;;5068280;28;20026;-72
2021/12/18 11:28:07;;;;;;;15.57;2.15;;;8.90;99.90;;;;;;5051390;28;20052;-71
2021/12/18 11:30:34;;;;;;;10.60;2.53;;;9.00;99.90;;;;;;5051445;28;20088;-70
2021/12/18 11:36:03;;;;;;;11.27;2.00;;;9.20;99.90;;;;;;5055184;28;20037;-71
2021/12/18 11:38:31;;;;;;;5.20;1.55;;;9.30;99.90;;;;;;5055553;28;20029;-72
2021/12/18 11:40:57;;;;;;;2.83;1.00;;;9.30;99.90;;;;;;5054785;28;20033;-71
2021/12/18 11:43:42;;;;;;;5.22;0.80;;;9.50;99.90;;;;;;5059996;28;20083;-71
2021/12/18 11:46:26;;;;;;;20.10;2.00;;;9.60;99.90;;;;;;5060208;28;20021;-71
2021/12/18 11:48:59;;;;;;;4.80;0.98;;;9.70;99.90;;;;;;5061210;28;20037;-72
2021/12/18 11:51:25;;;;;;;8.30;1.55;;;9.70;99.90;;;;;;5060176;28;20029;-69
2021/12/18 11:53:52;;;;;;;3.63;1.50;;;9.70;99.90;;;;;;5061198;28;20048;-71
2021/12/18 11:56:18;;;;;;;16.60;1.92;;;9.70;99.90;;;;;;5060548;28;20032;-70
2021/12/18 11:58:47;;;;;;;13.10;1.85;;;9.70;99.90;;;;;;5061270;28;20029;-71
2021/12/18 12:01:25;;;;;;;5.38;1.85;;;9.60;99.90;;;;;;5059860;28;20477;-72
2021/12/18 12:04:05;;;;;;;2.05;1.20;;;9.60;99.90;;;;;;5060796;28;20029;-72
2021/12/18 12:06:41;;;;;;;1.15;0.70;;;9.60;99.90;;;;;;5057640;28;20501;-73
2021/12/18 12:12:01;;;;;;;5.10;1.52;;;9.40;99.90;;;;;;5047928;28;20028;-70
2021/12/18 12:14:29;;;;;;;5.90;2.00;;;9.40;99.90;;;;;;5066805;28;20374;-72
2021/12/18 12:17:12;;;;;;;4.18;1.85;;;9.40;99.90;;;;;;5062193;28;20095;-72
2021/12/18 12:19:53;;;;;;;4.22;1.45;;;9.50;99.90;;;;;;5053480;28;20052;-73
2021/12/18 12:22:48;;;;;;;5.88;1.52;;;9.50;99.90;;;;;;5063895;28;20049;-72
2021/12/18 12:25:19;;;;;;;9.38;1.63;;;9.70;99.90;;;;;;5079430;28;20477;-73
2021/12/18 12:27:59;;;;;;;1.95;1.05;;;9.80;99.90;;;;;;5049670;28;20041;-73
2021/12/18 12:30:34;;;;;;;8.90;1.88;;;9.80;99.90;;;;;;5041121;28;20037;-72
2021/12/18 12:33:03;;;;;;;5.60;1.48;;;9.90;99.90;;;;;;5043541;28;20048;-71
2021/12/18 12:35:29;;;;;;;3.63;1.65;;;9.80;99.90;;;;;;5035660;28;20030;-72
2021/12/18 12:37:55;;;;;;;14.13;2.20;;;9.80;99.90;;;;;;5042743;28;20056;-71
2021/12/18 12:40:31;;;;;;;6.10;1.67;;;9.90;99.90;;;;;;5046335;28;20048;-71
2021/12/18 12:43:26;;;;;;;5.50;1.67;;;9.90;99.90;;;;;;5040045;28;20034;-71
2021/12/18 12:45:58;;;;;;;10.32;2.65;;;9.90;99.90;;;;;;5027709;28;20030;-72
2021/12/18 12:48:24;;;;;;;3.50;1.13;;;9.80;99.90;;;;;;5027720;28;20068;-72
2021/12/18 12:50:57;;;;;;;5.38;2.13;;;9.80;99.90;;;;;;5027648;28;20045;-72
2021/12/18 12:53:50;;;;;;;3.08;2.05;;;9.70;99.90;;;;;;5027659;28;20034;-71
2021/12/18 12:56:21;;;;;;;13.93;1.80;;;9.70;99.90;;;;;;5027282;28;20035;-72
2021/12/18 12:59:07;;;;;;;5.20;2.05;;;9.60;99.90;;;;;;5039038;28;20041;-72
2021/12/18 13:01:38;;;;;;;7.70;2.42;;;9.60;99.90;;;;;;5045627;28;20064;-70
2021/12/18 13:04:16;;;;;;;4.45;1.73;;;9.60;99.90;;;;;;5043078;28;20021;-73
2021/12/18 13:06:43;;;;;;;11.88;1.73;;;9.50;99.90;;;;;;5043326;28;20056;-72
2021/12/18 13:09:09;;;;;;;10.05;1.35;;;9.50;99.90;;;;;;5038173;28;20037;-73
2021/12/18 13:11:36;;;;;;;7.38;1.88;;;9.50;99.90;;;;;;5046485;28;20504;-71
2021/12/18 13:14:02;;;;;;;6.40;1.63;;;9.40;99.90;;;;;;5044096;28;20536;-73
2021/12/18 13:16:30;;;;;;;4.55;2.10;;;9.40;99.90;;;;;;5025086;28;20033;-74
2021/12/18 13:18:58;;;;;;;7.10;2.05;;;9.40;99.90;;;;;;5031819;28;20029;-73
2021/12/18 13:21:36;;;;;;;4.60;2.10;;;9.40;99.90;;;;;;5035455;28;20084;-75
2021/12/18 13:24:07;;;;;;;7.20;1.45;;;9.40;99.90;;;;;;5026549;28;20045;-75
2021/12/18 13:26:40;;;;;;;8.27;1.83;;;9.40;99.90;;;;;;5026487;28;20044;-75
2021/12/18 13:29:09;;;;;;;4.80;1.73;;;9.40;99.90;;;;;;5025142;28;20081;-76
2021/12/18 13:31:49;;;;;;;9.30;1.88;;;9.40;99.90;;;;;;5026320;28;20034;-75
2021/12/18 13:34:46;;;;;;;5.13;1.77;;;9.40;99.90;;;;;;5025166;28;20445;-78
2021/12/18 13:37:13;;;;;;;11.55;2.05;;;9.40;99.90;;;;;;5035304;28;20045;-76
2021/12/18 13:39:49;;;;;;;1.25;1.13;;;9.40;99.90;;;;;;5041056;28;20030;-74
2021/12/18 13:42:21;;;;;;;10.18;2.55;;;9.40;99.90;;;;;;5037444;28;20041;-78
2021/12/18 13:44:50;;;;;;;3.65;1.25;;;9.40;99.90;;;;;;5045191;28;20109;-76
2021/12/18 13:47:23;;;;;;;11.52;1.92;;;9.40;99.90;;;;;;5044026;28;20033;-73
2021/12/18 13:49:50;;;;;;;3.28;1.63;;;9.40;99.90;;;;;;5045946;28;20049;-74
2021/12/18 13:52:54;;;;;;;9.18;2.67;;;9.40;99.90;;;;;;5043911;28;20036;-77
2021/12/18 13:55:28;;;;;;;2.97;1.33;;;9.30;99.90;;;;;;5044040;28;20036;-75
2021/12/18 13:58:16;;;;;;;3.40;1.08;;;9.30;99.90;;;;;;5045544;28;20040;-75